地図

経路データ

SID SEASON NUMBER BASIN SUBBASIN NAME ISO_TIME NATURE LAT LON WMO_WIND WMO_PRES WMO_AGENCY TRACK_TYPE DIST2LAND LANDFALL IFLAG USA_AGENCY USA_ATCF_ID USA_LAT USA_LON USA_RECORD USA_STATUS USA_WIND USA_PRES USA_SSHS USA_R34_NE USA_R34_SE USA_R34_SW USA_R34_NW USA_R50_NE USA_R50_SE USA_R50_SW USA_R50_NW USA_R64_NE USA_R64_SE USA_R64_SW USA_R64_NW USA_POCI USA_ROCI USA_RMW USA_EYE TOKYO_LAT TOKYO_LON TOKYO_GRADE TOKYO_WIND TOKYO_PRES TOKYO_R50_DIR TOKYO_R50_LONG TOKYO_R50_SHORT TOKYO_R30_DIR TOKYO_R30_LONG TOKYO_R30_SHORT TOKYO_LAND CMA_LAT CMA_LON CMA_CAT CMA_WIND CMA_PRES HKO_LAT HKO_LON HKO_CAT HKO_WIND HKO_PRES NEWDELHI_LAT NEWDELHI_LON NEWDELHI_GRADE NEWDELHI_WIND NEWDELHI_PRES NEWDELHI_CI NEWDELHI_DP NEWDELHI_POCI REUNION_LAT REUNION_LON REUNION_TYPE REUNION_WIND REUNION_PRES REUNION_TNUM REUNION_CI REUNION_RMW REUNION_R34_NE REUNION_R34_SE REUNION_R34_SW REUNION_R34_NW REUNION_R50_NE REUNION_R50_SE REUNION_R50_SW REUNION_R50_NW REUNION_R64_NE REUNION_R64_SE REUNION_R64_SW REUNION_R64_NW BOM_LAT BOM_LON BOM_TYPE BOM_WIND BOM_PRES BOM_TNUM BOM_CI BOM_RMW BOM_R34_NE BOM_R34_SE BOM_R34_SW BOM_R34_NW BOM_R50_NE BOM_R50_SE BOM_R50_SW BOM_R50_NW BOM_R64_NE BOM_R64_SE BOM_R64_SW BOM_R64_NW BOM_ROCI BOM_POCI BOM_EYE BOM_POS_METHOD BOM_PRES_METHOD NADI_LAT NADI_LON NADI_CAT NADI_WIND NADI_PRES WELLINGTON_LAT WELLINGTON_LON WELLINGTON_WIND WELLINGTON_PRES DS824_LAT DS824_LON DS824_STAGE DS824_WIND DS824_PRES TD9636_LAT TD9636_LON TD9636_STAGE TD9636_WIND TD9636_PRES TD9635_LAT TD9635_LON TD9635_WIND TD9635_PRES TD9635_ROCI NEUMANN_LAT NEUMANN_LON NEUMANN_CLASS NEUMANN_WIND NEUMANN_PRES MLC_LAT MLC_LON MLC_CLASS MLC_WIND MLC_PRES USA_GUST BOM_GUST BOM_GUST_PER REUNION_GUST REUNION_GUST_PER USA_SEAHGT USA_SEARAD_NE USA_SEARAD_SE USA_SEARAD_SW USA_SEARAD_NW STORM_SPEED STORM_DIR
1892269N20268 1892 49 NA GM NOT_NAMED 1892-09-25 06:00:00 TS 19.5000 -92.2000 35 hurdat_atl main 99 99 O_____________ hurdat_atl AL061892 19.5000 -92.2000 TS 35 0 7 276
1892269N20268 1892 49 NA GM NOT_NAMED 1892-09-25 09:00:00 TS 19.5326 -92.5500 main 100 100 P_____________ AL061892 19.5326 -92.5500 TS 37 0 7 279
1892269N20268 1892 49 NA GM NOT_NAMED 1892-09-25 12:00:00 TS 19.6000 -92.9000 40 hurdat_atl main 113 113 O_____________ hurdat_atl AL061892 19.6000 -92.9000 TS 40 0 7 286
1892269N20268 1892 49 NA GM NOT_NAMED 1892-09-25 15:00:00 TS 19.7274 -93.2500 main 138 138 P_____________ AL061892 19.7274 -93.2500 TS 40 0 7 295
1892269N20268 1892 49 NA GM NOT_NAMED 1892-09-25 18:00:00 TS 19.9000 -93.6000 40 hurdat_atl main 173 173 O_____________ hurdat_atl AL061892 19.9000 -93.6000 TS 40 0 8 298
1892269N20268 1892 49 NA GM NOT_NAMED 1892-09-25 21:00:00 TS 20.0850 -93.9576 main 197 192 P_____________ AL061892 20.0850 -93.9576 TS 42 0 8 301
1892269N20268 1892 49 NA GM NOT_NAMED 1892-09-26 00:00:00 TS 20.3000 -94.3000 45 hurdat_atl main 202 197 O_____________ hurdat_atl AL061892 20.3000 -94.3000 TS 45 0 8 307
1892269N20268 1892 49 NA GM NOT_NAMED 1892-09-26 03:00:00 TS 20.5424 -94.6076 main 199 185 P_____________ AL061892 20.5424 -94.6076 TS 47 0 8 312
1892269N20268 1892 49 NA GM NOT_NAMED 1892-09-26 06:00:00 TS 20.8000 -94.9000 50 hurdat_atl main 185 175 O_____________ hurdat_atl AL061892 20.8000 -94.9000 TS 50 0 7 312
1892269N20268 1892 49 NA GM NOT_NAMED 1892-09-26 09:00:00 TS 21.0424 -95.2001 main 175 175 P_____________ AL061892 21.0424 -95.2001 TS 50 0 8 312
1892269N20268 1892 49 NA GM NOT_NAMED 1892-09-26 12:00:00 TS 21.3000 -95.5000 50 hurdat_atl main 175 155 O_____________ hurdat_atl AL061892 21.3000 -95.5000 TS 50 0 8 314
1892269N20268 1892 49 NA GM NOT_NAMED 1892-09-26 15:00:00 TS 21.5925 -95.8075 main 155 125 P_____________ AL061892 21.5925 -95.8075 TS 50 0 8 317
1892269N20268 1892 49 NA GM NOT_NAMED 1892-09-26 18:00:00 TS 21.9000 -96.1000 50 hurdat_atl main 128 117 O_____________ hurdat_atl AL061892 21.9000 -96.1000 TS 50 0 8 320
1892269N20268 1892 49 NA GM NOT_NAMED 1892-09-26 21:00:00 TS 22.1999 -96.3577 main 114 113 P_____________ AL061892 22.1999 -96.3577 TS 50 0 8 322
1892269N20268 1892 49 NA GM NOT_NAMED 1892-09-27 00:00:00 TS 22.5000 -96.6000 50 hurdat_atl main 121 102 O_____________ hurdat_atl AL061892 22.5000 -96.6000 TS 50 0 8 323
1892269N20268 1892 49 NA GM NOT_NAMED 1892-09-27 03:00:00 TS 22.7925 -96.8502 main 92 71 P_____________ AL061892 22.7925 -96.8502 TS 50 0 8 322
1892269N20268 1892 49 NA GM NOT_NAMED 1892-09-27 06:00:00 TS 23.1000 -97.1000 50 hurdat_atl main 71 40 O_____________ hurdat_atl AL061892 23.1000 -97.1000 TS 50 0 8 325
1892269N20268 1892 49 NA GM NOT_NAMED 1892-09-27 09:00:00 TS 23.4575 -97.3649 main 40 20 P_____________ AL061892 23.4575 -97.3649 TS 47 0 8 327
1892269N20268 1892 49 NA GM NOT_NAMED 1892-09-27 12:00:00 TS 23.8000 -97.6000 45 hurdat_atl main 20 0 O_____________ hurdat_atl AL061892 23.8000 -97.6000 TS 45 0 7 329
1892269N20268 1892 49 NA NA NOT_NAMED 1892-09-27 15:00:00 TS 24.0725 -97.7701 main 0 0 P_____________ AL061892 24.0725 -97.7701 TS 40 0 6 331
1892269N20268 1892 49 NA NA NOT_NAMED 1892-09-27 18:00:00 TS 24.3000 -97.9000 35 hurdat_atl main 0 O_____________ hurdat_atl AL061892 24.3000 -97.9000 TS 35 0 5 333

IBTrACS Databaseについて

本データベースは、米国NOAAが公開する1842年以降の世界の熱帯低気圧のベストトラックデータアーカイブInternational Best Track Archive for Climate Stewardship (IBTrACS)を、ウェブで閲覧しやすい形式に変換したものです。

最終更新日:2021-10-08